96D

Walhalla Municipal Airport

Walhalla, North Dakota, USA
METAR K96D 210335Z AUTO 16006KT 10SM CLR 04/M00 A3033 RMK AO2
Observed Flight Rules
Apr-21 @ 03:35 UTC (20 minutes ago) Visual Flight Rules
Wind Visibility Clouds
160° at 6 knots 10 miles
  • Clear skies
Temperatures Readings
Current 4°C / 39°F
Dewpoint 0°C / 32°F
Humidity 75%
Altimeter 30.33" Hg
Pressure 1027 hPa
Elevation 290
METAR K96D 210335Z AUTO 16006KT 10SM CLR 04/M00 A3033 RMK AO2
Observed Flight Rules
Apr-21 @ 03:35 UTC
(20 minutes ago)
VFR
Wind Visibility
160° at 6 knots 10 miles
Clouds
  • Clear skies
Temperature Dewpoint
4°C / 39°F 0°C / 32°F
Humidity Altimeter Pressure
75% 30.33" Hg 1027 hPa